メインページ
METAR-TAF:

METAR-TAF

空港 :

ウォータータウン, ニューヨーク, アメリカ合衆国

緯度: 43-59-31N, 経度: 076-01-18W, 海抜: 99m

現時点の気象観測

当レポートは30分前の19:56(UTC)に作成
西の風 5kt
気温 -5°C
湿度 73%
気圧 1029 hPa
視程: 16.1km
晴天

METAR: KART 071956Z AUTO 26005KT 10SM CLR M05/M09 A3040 RMK AO2 SLP304 T10501094

時間: 15:26 (20:26 UTC)

予報

当レポートは2時間53分前の17:33(UTC)に作成
予報は07日の 18時(UTC)から 08日の 18時(UTC)まで有効
西の風 6kt
視程: 10km
高度2500ftの雲は散在している
高度10000ftの千切れ雲あり
07日の 2300時(UTC)から
変向風 3kt
視程: 10km
晴天
08日の 0800時(UTC)から
の風 10kt
視程: 10km
高度15000ftの雲は散在している
08日の 1400時(UTC)から
の風 14kt、最大22ktの突風を伴う
視程: 10km
高度15000ftの千切れ雲あり

TAF: KART 071733Z 0718/0818 27006KT P6SM SCT025 BKN100 FM072300 VRB03KT P6SM SKC FM080800 18010KT P6SM SCT150 FM081400 18014G22KT P6SM BKN150

4,000以上の空港の気象観測と天気予報(METAR報とTAF報)

利用可能な観測所は地図上に黄色い丸と赤い丸で示す。

丸の上にカーソルを重ねると観測所名を参照できる。

次にクリックすると気象観測と天気予報を参照できる。

マップの切り替え:黒色「×」印の緑ボタンをクリックして拡大、「-」印の緑ボタンをクリックして縮小、緑色の三角印をクリックして隣りの地図に切り替え


METAR-TAF: